LTFJLTCA

Guest
Details From LTFJ - SABIHA GOKCEN
To LTCA - ELAZIG
Flight Number -
Tags generated
Created
Modified
Stats Distance 485 nm / 899 km
Max Altitude 35,000 ft / 10,668 m
Waypoints 9
Social Downloads 0
Likes 0
Share VATSIM

Download

Looking for another format? Having issues loading an existing format? Contact us
Advertisement - Login to hide

Notes

Basic altitude profile: - Ascent Rate: 2500ft/min - Ascent Speed: 250kts - Cruise Altitude: 35000ft - Cruise Speed: 420kts - Descent Rate: 1500ft/min - Descent Speed: 250kts Options: - Use NATs: yes - Use PACOTS: yes - Use low airways: yes - Use high airways: yes

Route

LTFJ TOKER UG8 GEM G8 BULUT LTCA

ID Type Via Altitude Latitude Longitude Leg Dist Tot Dist Heading (true) Name
O LTFJ APT - 0 ft / 0 m 40.89855˚ 29.30922˚ - 0 nm - SABIHA GOKCEN
TOKER FIX - 25,900 ft / 7,894 m 40.31333˚ 30.77222˚ 75 nm 75 nm 117° / 118° -
PETAR FIX UG8 (AWY-HI) 35,000 ft / 10,668 m 40.17222˚ 32.08194˚ 60 nm 136 nm 98° / 98° -
BAG VOR UG8 (AWY-HI) 35,000 ft / 10,668 m 40.06953˚ 32.81039˚ 34 nm 170 nm 100° / 101° BAGLUM VOR-DME
KUBER FIX UG8 (AWY-HI) 35,000 ft / 10,668 m 39.83333˚ 33.61111˚ 39 nm 209 nm 111° / 111° -
MARTI FIX UG8 (AWY-HI) 35,000 ft / 10,668 m 39.40167˚ 35.18278˚ 77 nm 286 nm 109° / 110° -
GEM VOR UG8 (AWY-HI) 33,500 ft / 10,211 m 39.15528˚ 36.02917˚ 42 nm 328 nm 110° / 111° GEMEREK VOR-DME
BULUT FIX G8 (AWY-LO) 9,500 ft / 2,896 m 38.75972˚ 38.90056˚ 136 nm 464 nm 99° / 101° -
O LTCA APT - 0 ft / 0 m 38.60692˚ 39.29142˚ 20 nm 485 nm 116° / 117° ELAZIG

Altitude Profile

Advertisement - Login to hide

Weather


0- 5 10 15 20 25 30 35+ Temperature / ° C

Clouds and Precipitation
Forecast for 2017-12-16 00:00 UTC. Updated an hour ago

Ground ~20,000 ft ~40,000 ft Winds

LTFJ

Details ICAO LTFJ (SAW)
Name SABIHA GOKCEN
Region Turkey
Timezone Europe/Istanbul (UTC+3.0)
Stats Elevation 312 ft / 95 m (AMSL)
Location 40.898552° 29.309221°
Runways 1
Magnetic Variation 5.474° E

METAR

LTFJ 151950Z VRB01KT CAVOK 13/06 Q1014 NOSIG

Decode

TAF

Not found

Departure Runways

ID Width Length Bearing (true) Bearing (mag) Surface Threshold Offset Overrun Length
06 148 ft / 45 m 9,690 ft / 2,953 m 64.01° 58.54° Concrete 0 ft / 0 m 197 ft / 60 m
24 148 ft / 45 m 9,690 ft / 2,953 m 244.03° 238.56° Concrete 0 ft / 0 m 197 ft / 60 m

LTCA

Details ICAO LTCA (EZS)
Name ELAZIG
Region Turkey
Timezone Europe/Istanbul (UTC+3.0)
Stats Elevation 2,927 ft / 892 m (AMSL)
Location 38.606925° 39.291415°
Runways 1
Magnetic Variation 5.770° E

METAR

LTCA 151950Z 13004KT 100V160 5000 BR OVC008 02/01 Q1024 TEMPO 2000 OVC003

Decode

TAF

Not found

Destination Runways

ID Width Length Bearing (true) Bearing (mag) Surface Threshold Offset Overrun Length
13 105 ft / 32 m 5,616 ft / 1,712 m 134.22° 128.45° Asphalt 0 ft / 0 m 206 ft / 63 m
31 105 ft / 32 m 5,616 ft / 1,712 m 314.23° 308.46° Asphalt 0 ft / 0 m 206 ft / 63 m

Popular Alternatives